createdAt,value
2022-08-22T00:01:42.629Z,11.90
2022-08-22T00:02:49.120Z,13.30
2022-08-22T00:03:12.195Z,11.90
2022-08-22T00:04:26.572Z,15.90
2022-08-22T00:07:22.058Z,10.10
2022-08-22T00:10:04.996Z,9.60
2022-08-22T00:15:42.531Z,16.50
2022-08-22T00:18:27.217Z,13.40
2022-08-22T00:21:18.712Z,14.20
2022-08-22T00:24:27.080Z,13.50
2022-08-22T00:27:04.468Z,12.00
2022-08-22T00:29:39.909Z,11.50
2022-08-22T00:32:15.199Z,15.40
2022-08-22T00:34:54.796Z,13.80
2022-08-22T00:37:22.068Z,16.50
2022-08-22T00:40:10.135Z,10.90
2022-08-22T00:42:56.814Z,9.40
2022-08-22T00:45:45.240Z,14.90
2022-08-22T00:48:51.088Z,13.60
2022-08-22T00:51:31.508Z,13.60
2022-08-22T00:54:28.755Z,16.20
2022-08-22T00:57:39.171Z,13.00
2022-08-22T01:00:13.592Z,13.90
2022-08-22T01:02:52.686Z,12.90
2022-08-22T01:05:41.228Z,12.00
2022-08-22T01:08:18.299Z,13.40
2022-08-22T01:11:08.443Z,12.40
2022-08-22T01:13:49.393Z,11.50
2022-08-22T01:16:56.496Z,11.00
2022-08-22T01:19:54.510Z,16.20
2022-08-22T01:22:33.731Z,15.20
2022-08-22T01:25:26.290Z,14.90
2022-08-22T01:27:59.775Z,13.30
2022-08-22T01:31:07.452Z,12.10
2022-08-22T01:34:14.337Z,14.10
2022-08-22T01:37:10.195Z,15.90
2022-08-22T01:40:01.709Z,11.00
2022-08-22T01:43:06.785Z,11.90
2022-08-22T01:45:36.687Z,13.80
2022-08-22T01:48:12.959Z,13.10
2022-08-22T01:50:45.487Z,15.00
2022-08-22T01:53:22.908Z,14.50
2022-08-22T01:55:58.967Z,16.80
2022-08-22T01:58:31.343Z,10.70
2022-08-22T02:01:19.027Z,12.30
2022-08-22T02:04:02.171Z,14.60
2022-08-22T02:06:41.354Z,9.40
2022-08-22T02:09:38.955Z,11.70
2022-08-22T02:12:25.690Z,13.70
2022-08-22T02:15:02.609Z,16.50
2022-08-22T02:17:32.811Z,13.60
2022-08-22T02:20:29.180Z,13.40
2022-08-22T02:23:21.984Z,13.60
2022-08-22T02:25:57.131Z,13.30
2022-08-22T02:28:56.936Z,14.80
2022-08-22T02:31:53.178Z,13.10
2022-08-22T02:34:28.264Z,15.00
2022-08-22T02:37:13.833Z,9.20
2022-08-22T02:39:49.838Z,12.80
2022-08-22T02:42:45.060Z,9.30
2022-08-22T02:45:23.261Z,15.00
2022-08-22T02:48:05.943Z,13.90
2022-08-22T02:50:52.881Z,13.30
2022-08-22T02:53:48.163Z,13.40
2022-08-22T02:56:28.669Z,12.30
2022-08-22T02:59:18.800Z,12.90
2022-08-22T03:01:46.555Z,15.30
2022-08-22T03:04:34.180Z,9.90
2022-08-22T03:07:09.217Z,11.70
2022-08-22T03:09:41.471Z,11.10
2022-08-22T03:12:26.636Z,13.90
2022-08-22T03:15:00.365Z,12.80
2022-08-22T03:17:35.015Z,12.80
2022-08-22T03:20:10.642Z,12.90
2022-08-22T03:23:03.773Z,13.90
2022-08-22T03:25:37.358Z,12.80
2022-08-22T03:28:12.236Z,14.00
2022-08-22T03:31:22.654Z,14.50
2022-08-22T03:34:16.373Z,12.90
2022-08-22T03:37:06.507Z,14.20
2022-08-22T03:39:51.498Z,14.60
2022-08-22T03:42:35.985Z,16.60
2022-08-22T03:45:41.382Z,17.20
2022-08-22T03:48:29.604Z,19.70
2022-08-22T03:51:14.545Z,13.80
2022-08-22T03:53:46.212Z,12.50
2022-08-22T03:56:35.056Z,11.30
2022-08-22T03:59:32.153Z,17.70
2022-08-22T04:02:43.256Z,13.30
2022-08-22T04:05:33.380Z,17.60
2022-08-22T04:08:11.224Z,12.20
2022-08-22T04:11:07.013Z,13.10
2022-08-22T04:14:10.108Z,18.60
2022-08-22T04:16:42.079Z,16.60
2022-08-22T04:19:16.216Z,21.10
2022-08-22T04:21:49.310Z,17.90
2022-08-22T04:24:24.455Z,16.90
2022-08-22T04:26:58.208Z,15.50
2022-08-22T04:29:34.139Z,15.00
2022-08-22T04:32:14.777Z,14.20
2022-08-22T04:34:54.860Z,17.90
2022-08-22T04:37:28.115Z,18.40
2022-08-22T04:40:02.354Z,25.30
2022-08-22T04:42:42.436Z,24.60
2022-08-22T04:45:18.389Z,29.40
2022-08-22T04:47:54.202Z,18.70
2022-08-22T04:51:00.720Z,19.40
2022-08-22T04:53:50.068Z,27.20
2022-08-22T04:57:02.917Z,21.00
2022-08-22T04:59:30.134Z,20.20
2022-08-22T05:05:13.476Z,22.00
2022-08-22T05:07:46.390Z,16.90
2022-08-22T05:10:17.791Z,18.30
2022-08-22T05:12:54.944Z,19.30
2022-08-22T05:15:24.843Z,21.30
2022-08-22T05:17:54.347Z,18.30
2022-08-22T05:20:23.993Z,20.10
2022-08-22T05:22:53.038Z,14.10
2022-08-22T05:25:22.585Z,19.40
2022-08-22T05:27:56.256Z,16.40
2022-08-22T05:30:28.007Z,15.60
2022-08-22T05:32:57.391Z,20.40
2022-08-22T05:35:33.723Z,18.80
2022-08-22T05:38:01.177Z,26.00
2022-08-22T05:40:30.241Z,23.60
2022-08-22T05:42:57.853Z,12.50
2022-08-22T05:45:26.600Z,17.90
2022-08-22T05:48:04.337Z,21.30
2022-08-22T05:50:38.207Z,23.20
2022-08-22T05:53:28.588Z,20.00
2022-08-22T05:56:11.068Z,28.00
2022-08-22T05:58:39.086Z,18.40
2022-08-22T06:01:27.875Z,23.30
2022-08-22T06:04:11.940Z,17.80
2022-08-22T06:07:01.591Z,19.90
2022-08-22T06:09:55.344Z,16.10
2022-08-22T06:12:34.834Z,21.80
2022-08-22T06:15:12.760Z,21.10
2022-08-22T06:17:51.460Z,20.10
2022-08-22T06:20:21.352Z,27.50
2022-08-22T06:22:53.784Z,28.10
2022-08-22T06:25:47.606Z,19.20
2022-08-22T06:28:19.988Z,19.70
2022-08-22T06:30:47.460Z,20.60
2022-08-22T06:33:17.299Z,19.50
2022-08-22T06:38:54.419Z,30.10
2022-08-22T06:41:22.264Z,20.20
2022-08-22T06:43:50.007Z,19.70
2022-08-22T06:46:17.143Z,25.30
2022-08-22T06:48:44.802Z,16.70
2022-08-22T06:51:12.471Z,38.20
2022-08-22T06:53:47.703Z,17.90
2022-08-22T06:56:26.600Z,18.10
2022-08-22T06:58:55.627Z,21.60
2022-08-22T07:01:25.447Z,20.00
2022-08-22T07:04:01.187Z,21.90
2022-08-22T07:06:39.521Z,25.20
2022-08-22T07:09:07.250Z,17.40
2022-08-22T07:11:39.562Z,24.10
2022-08-22T07:14:12.078Z,24.80
2022-08-22T07:16:42.173Z,19.30
2022-08-22T07:19:42.235Z,22.50
2022-08-22T07:22:19.307Z,23.80
2022-08-22T07:24:48.294Z,18.30
2022-08-22T07:27:49.808Z,20.70
2022-08-22T07:30:27.564Z,20.70
2022-08-22T07:33:23.643Z,24.80
2022-08-22T07:36:06.067Z,26.80
2022-08-22T07:38:34.952Z,24.70
2022-08-22T07:41:06.522Z,15.50
2022-08-22T07:43:42.007Z,20.20
2022-08-22T07:46:09.185Z,22.40
2022-08-22T07:49:08.122Z,23.90
2022-08-22T07:51:40.527Z,17.70
2022-08-22T07:54:09.370Z,21.10
2022-08-22T07:56:42.417Z,17.50
2022-08-22T07:59:14.914Z,19.30
2022-08-22T08:01:46.559Z,19.70
2022-08-22T08:04:17.643Z,38.30
2022-08-22T08:06:48.639Z,20.10
2022-08-22T08:09:15.742Z,23.90
2022-08-22T08:11:43.645Z,20.30
2022-08-22T08:14:13.608Z,19.90
2022-08-22T08:16:43.825Z,19.80
2022-08-22T08:19:12.193Z,23.90
2022-08-22T08:21:47.150Z,18.70
2022-08-22T08:24:16.150Z,32.60
2022-08-22T08:27:06.709Z,18.80
2022-08-22T08:29:37.297Z,16.70
2022-08-22T08:32:05.007Z,21.00
2022-08-22T08:34:32.632Z,19.70
2022-08-22T08:39:50.803Z,17.50
2022-08-22T08:43:03.340Z,16.10
2022-08-22T08:45:51.779Z,18.20
2022-08-22T08:48:35.759Z,19.50
2022-08-22T08:54:19.468Z,19.20
2022-08-22T08:57:18.898Z,18.90
2022-08-22T09:00:07.642Z,21.50
2022-08-22T09:03:01.241Z,20.60
2022-08-22T09:05:47.290Z,24.40
2022-08-22T09:08:17.519Z,22.00
2022-08-22T09:11:00.939Z,20.40
2022-08-22T09:13:55.800Z,28.20
2022-08-22T09:16:46.302Z,21.90
2022-08-22T09:19:31.457Z,26.40
2022-08-22T09:22:33.448Z,18.60
2022-08-22T09:25:39.270Z,23.30
2022-08-22T09:28:20.455Z,21.50
2022-08-22T09:30:58.663Z,18.90
2022-08-22T09:33:34.147Z,16.90
2022-08-22T09:36:18.051Z,21.40
2022-08-22T09:39:14.287Z,19.30
2022-08-22T09:42:02.796Z,18.20
2022-08-22T09:44:39.475Z,19.30
2022-08-22T09:47:24.261Z,21.60
2022-08-22T09:50:08.740Z,17.20
2022-08-22T09:52:46.995Z,18.80
2022-08-22T09:55:35.337Z,29.80
2022-08-22T09:58:20.245Z,11.60
2022-08-22T10:00:54.960Z,11.10
2022-08-22T10:04:59.237Z,11.70
2022-08-22T10:07:53.302Z,15.10
2022-08-22T10:10:39.217Z,36.10
2022-08-22T10:13:27.195Z,18.50
2022-08-22T10:16:13.623Z,16.60
2022-08-22T10:18:53.246Z,20.80
2022-08-22T10:21:35.445Z,14.90
2022-08-22T10:24:25.316Z,15.10
2022-08-22T10:26:54.862Z,17.00
2022-08-22T10:29:51.970Z,13.00
2022-08-22T10:32:50.622Z,15.40
2022-08-22T10:35:33.675Z,14.00
2022-08-22T10:38:25.205Z,17.40
2022-08-22T10:41:45.506Z,14.80
2022-08-22T10:44:17.393Z,16.50
2022-08-22T10:46:47.462Z,12.40
2022-08-22T10:49:33.216Z,13.50
2022-08-22T10:52:16.193Z,29.80
2022-08-22T10:54:52.686Z,16.00
2022-08-22T10:57:32.645Z,12.40
2022-08-22T11:00:10.190Z,20.80
2022-08-22T11:02:53.614Z,12.80
2022-08-22T11:05:27.559Z,10.10
2022-08-22T11:08:49.483Z,12.80
2022-08-22T11:11:20.804Z,12.60
2022-08-22T11:14:08.658Z,16.00
2022-08-22T11:16:55.025Z,29.60
2022-08-22T11:19:26.359Z,14.10
2022-08-22T11:22:10.058Z,14.00
2022-08-22T11:25:04.390Z,11.40
2022-08-22T11:27:38.377Z,11.00
2022-08-22T11:30:18.112Z,13.80
2022-08-22T11:33:17.314Z,15.10
2022-08-22T11:35:50.421Z,13.70
2022-08-22T11:38:37.717Z,10.00
2022-08-22T11:41:24.353Z,9.80
2022-08-22T11:44:03.473Z,7.90
2022-08-22T11:46:33.251Z,10.90
2022-08-22T11:49:33.191Z,9.80
2022-08-22T11:52:26.827Z,9.90
2022-08-22T11:55:23.064Z,10.80
2022-08-22T11:57:52.847Z,11.30
2022-08-22T12:05:24.494Z,7.90
2022-08-22T12:08:08.290Z,12.80
2022-08-22T12:10:38.339Z,8.20
2022-08-22T12:13:35.056Z,12.30
2022-08-22T12:16:38.990Z,8.50
2022-08-22T12:19:24.957Z,10.70
2022-08-22T12:22:31.320Z,11.40
2022-08-22T12:25:17.926Z,19.10
2022-08-22T12:27:58.315Z,12.30
2022-08-22T12:30:45.845Z,13.40
2022-08-22T12:33:34.878Z,19.80
2022-08-22T12:36:18.443Z,18.20
2022-08-22T12:39:36.510Z,10.70
2022-08-22T12:42:23.356Z,9.30
2022-08-22T12:45:03.644Z,10.10
2022-08-22T12:47:42.168Z,10.00
2022-08-22T12:50:20.650Z,11.40
2022-08-22T12:53:10.189Z,12.40
2022-08-22T12:55:46.057Z,9.70
2022-08-22T12:58:42.941Z,10.90
2022-08-22T13:01:11.442Z,11.40
2022-08-22T13:03:50.613Z,10.30
2022-08-22T13:06:36.241Z,11.10
2022-08-22T13:09:31.203Z,7.40
2022-08-22T13:12:20.712Z,8.30
2022-08-22T13:14:49.992Z,9.80
2022-08-22T13:17:24.941Z,9.10
2022-08-22T13:20:11.635Z,11.70
2022-08-22T13:22:41.216Z,8.50
2022-08-22T13:25:26.039Z,11.20
2022-08-22T13:27:56.188Z,10.40
2022-08-22T13:30:40.189Z,10.80
2022-08-22T13:33:15.063Z,10.70
2022-08-22T13:35:52.377Z,9.60
2022-08-22T13:38:27.016Z,11.60
2022-08-22T13:40:57.887Z,13.60
2022-08-22T13:43:31.373Z,11.60
2022-08-22T13:46:06.352Z,13.10
2022-08-22T13:48:47.051Z,11.40
2022-08-22T13:51:21.307Z,11.50
2022-08-22T13:54:20.095Z,12.00
2022-08-22T13:56:50.534Z,15.50
2022-08-22T13:59:51.806Z,8.80
2022-08-22T14:02:39.431Z,10.40
2022-08-22T14:05:13.528Z,11.40
2022-08-22T14:07:58.284Z,11.20
2022-08-22T14:10:28.795Z,14.40
2022-08-22T14:12:59.045Z,14.20
2022-08-22T14:15:32.317Z,14.20
2022-08-22T14:18:17.702Z,13.30
2022-08-22T14:20:46.465Z,12.80
2022-08-22T14:23:27.276Z,11.00
2022-08-22T14:25:54.815Z,14.40
2022-08-22T14:28:27.442Z,13.60
2022-08-22T14:31:14.485Z,12.50
2022-08-22T14:33:49.144Z,9.70
2022-08-22T14:36:22.027Z,10.40
2022-08-22T14:38:57.317Z,11.80
2022-08-22T14:41:55.466Z,9.00
2022-08-22T14:44:29.154Z,9.70
2022-08-22T14:46:58.075Z,16.20
2022-08-22T14:49:29.629Z,9.50
2022-08-22T14:52:00.585Z,11.60
2022-08-22T14:54:29.133Z,12.40
2022-08-22T14:56:56.906Z,12.80
2022-08-22T14:59:33.836Z,10.20
2022-08-22T15:02:02.952Z,11.00
2022-08-22T15:04:39.491Z,14.50
2022-08-22T15:07:08.511Z,10.70
2022-08-22T15:10:17.952Z,24.20
2022-08-22T15:12:54.140Z,19.10
2022-08-22T15:16:05.688Z,22.70
2022-08-22T15:18:35.672Z,28.50
2022-08-22T15:21:28.015Z,24.80
2022-08-22T15:23:59.832Z,23.00
2022-08-22T15:26:33.364Z,21.90
2022-08-22T15:29:28.939Z,17.60
2022-08-22T15:31:58.782Z,18.80
2022-08-22T15:34:44.451Z,19.20
2022-08-22T15:37:18.094Z,17.70
2022-08-22T15:40:12.773Z,18.00
2022-08-22T15:42:44.833Z,23.30
2022-08-22T15:45:34.016Z,20.00
2022-08-22T15:48:04.721Z,24.50
2022-08-22T15:50:39.039Z,20.90
2022-08-22T15:53:20.339Z,15.30
2022-08-22T15:56:25.796Z,17.10
2022-08-22T15:59:15.104Z,16.20
2022-08-22T16:01:49.943Z,9.40
2022-08-22T16:04:30.601Z,15.70
2022-08-22T16:09:34.730Z,14.50
2022-08-22T16:12:04.029Z,9.80
2022-08-22T16:14:34.157Z,17.00
2022-08-22T16:17:07.261Z,12.70
2022-08-22T16:19:38.272Z,13.20
2022-08-22T16:22:07.298Z,15.00
2022-08-22T16:24:59.168Z,16.50
2022-08-22T16:27:26.716Z,10.30
2022-08-22T16:30:08.096Z,13.80
2022-08-22T16:32:35.404Z,8.60
2022-08-22T16:35:02.593Z,16.50
2022-08-22T16:37:43.923Z,13.90
2022-08-22T16:40:23.213Z,10.00
2022-08-22T16:42:53.415Z,13.20
2022-08-22T16:45:36.941Z,13.50
2022-08-22T16:48:32.416Z,15.20
2022-08-22T16:51:12.827Z,10.10
2022-08-22T16:56:33.111Z,14.60
2022-08-22T16:59:52.845Z,14.60
2022-08-22T17:02:45.995Z,17.10
2022-08-22T17:05:19.138Z,14.60
2022-08-22T17:07:56.425Z,11.40
2022-08-22T17:10:41.424Z,14.40
2022-08-22T17:13:37.679Z,11.00
2022-08-22T17:16:31.544Z,15.60
2022-08-22T17:19:13.947Z,12.10
2022-08-22T17:22:04.773Z,11.60
2022-08-22T17:24:47.670Z,10.10
2022-08-22T17:27:38.722Z,12.20
2022-08-22T17:30:07.367Z,9.00
2022-08-22T17:33:26.659Z,11.50
2022-08-22T17:36:36.819Z,12.60
2022-08-22T17:39:26.462Z,16.60
2022-08-22T17:42:20.924Z,11.30
2022-08-22T17:45:13.187Z,11.70
2022-08-22T17:47:47.590Z,20.60
2022-08-22T17:50:18.641Z,74.40
2022-08-22T17:53:07.287Z,45.20
2022-08-22T17:55:55.004Z,35.40
2022-08-22T17:58:35.707Z,29.10
2022-08-22T18:01:46.422Z,49.40
2022-08-22T18:04:25.982Z,19.30
2022-08-22T18:08:01.970Z,20.20
2022-08-22T18:10:41.438Z,22.80
2022-08-22T18:13:36.227Z,17.50
2022-08-22T18:16:11.471Z,16.40
2022-08-22T18:18:44.822Z,18.00
2022-08-22T18:21:32.288Z,22.60
2022-08-22T18:24:13.024Z,22.40
2022-08-22T18:29:17.582Z,16.10
2022-08-22T18:32:14.835Z,16.40
2022-08-22T18:35:02.568Z,13.50
2022-08-22T18:37:35.359Z,16.30
2022-08-22T18:40:04.747Z,20.60
2022-08-22T18:42:34.718Z,14.80
2022-08-22T18:45:02.140Z,21.20
2022-08-22T18:47:34.510Z,13.30
2022-08-22T18:50:22.688Z,17.40
2022-08-22T18:52:51.822Z,13.40
2022-08-22T18:55:50.351Z,14.00
2022-08-22T18:58:58.892Z,20.00
2022-08-22T19:01:58.236Z,15.70
2022-08-22T19:04:54.665Z,14.70
2022-08-22T19:07:48.317Z,17.00
2022-08-22T19:10:23.088Z,15.00
2022-08-22T19:12:53.299Z,20.10
2022-08-22T19:15:26.834Z,15.90
2022-08-22T19:18:13.516Z,16.40
2022-08-22T19:20:59.783Z,15.50
2022-08-22T19:23:37.444Z,15.00
2022-08-22T19:26:24.763Z,14.70
2022-08-22T19:28:53.244Z,17.40
2022-08-22T19:31:50.744Z,12.80
2022-08-22T19:34:30.606Z,16.90
2022-08-22T19:37:32.322Z,16.90
2022-08-22T19:40:10.921Z,19.60
2022-08-22T19:42:41.678Z,15.90
2022-08-22T19:45:29.537Z,17.20
2022-08-22T19:47:59.828Z,13.30
2022-08-22T19:50:33.887Z,13.30
2022-08-22T19:53:11.291Z,15.10
2022-08-22T19:55:38.536Z,17.20
2022-08-22T19:58:31.947Z,17.00
2022-08-22T20:01:29.881Z,10.10
2022-08-22T20:04:20.716Z,11.70
2022-08-22T20:07:45.668Z,18.40
2022-08-22T20:10:34.538Z,15.40
2022-08-22T20:13:27.660Z,13.70
2022-08-22T20:16:10.419Z,12.40
2022-08-22T20:18:53.520Z,15.60
2022-08-22T20:21:46.906Z,17.80
2022-08-22T20:24:25.687Z,17.00
2022-08-22T20:27:12.828Z,11.70
2022-08-22T20:30:05.130Z,10.60
2022-08-22T20:32:37.733Z,13.10
2022-08-22T20:35:05.635Z,10.30
2022-08-22T20:38:04.842Z,11.80
2022-08-22T20:40:57.648Z,13.30
2022-08-22T20:43:36.119Z,18.00
2022-08-22T20:46:13.951Z,13.30
2022-08-22T20:48:45.221Z,15.30
2022-08-22T20:51:17.889Z,18.80
2022-08-22T20:53:53.293Z,13.60
2022-08-22T20:56:53.022Z,11.90
2022-08-22T20:59:27.548Z,11.50
2022-08-22T21:02:02.204Z,10.80
2022-08-22T21:04:39.505Z,10.70
2022-08-22T21:07:30.975Z,10.90
2022-08-22T21:10:22.547Z,14.10
2022-08-22T21:13:04.911Z,11.90
2022-08-22T21:15:47.087Z,13.50
2022-08-22T21:18:26.358Z,22.70
2022-08-22T21:20:53.993Z,17.20
2022-08-22T21:23:21.947Z,13.90
2022-08-22T21:26:07.580Z,14.00
2022-08-22T21:28:54.348Z,10.60
2022-08-22T21:31:23.758Z,8.10
2022-08-22T21:33:52.116Z,10.00
2022-08-22T21:36:22.267Z,9.30
2022-08-22T21:38:58.088Z,10.90
2022-08-22T21:41:28.470Z,8.20
2022-08-22T21:43:56.113Z,11.30
2022-08-22T21:46:28.688Z,7.70
2022-08-22T21:49:02.025Z,6.10
2022-08-22T21:51:44.852Z,9.60
2022-08-22T21:54:39.778Z,8.00
2022-08-22T21:57:13.714Z,9.80
2022-08-22T21:59:52.177Z,5.40
2022-08-22T22:02:29.365Z,12.50
2022-08-22T22:04:59.454Z,9.40
2022-08-22T22:07:27.241Z,11.30
2022-08-22T22:09:55.021Z,8.00
2022-08-22T22:12:23.075Z,14.20
2022-08-22T22:14:50.435Z,9.80
2022-08-22T22:17:18.604Z,10.80
2022-08-22T22:19:46.184Z,8.20
2022-08-22T22:22:21.922Z,9.20
2022-08-22T22:24:52.749Z,10.10
2022-08-22T22:27:19.916Z,9.40
2022-08-22T22:29:47.278Z,9.00
2022-08-22T22:32:15.268Z,6.20
2022-08-22T22:34:42.885Z,7.90
2022-08-22T22:37:11.894Z,7.60
2022-08-22T22:39:39.900Z,6.90
2022-08-22T22:42:09.172Z,7.90
2022-08-22T22:44:40.035Z,10.80
2022-08-22T22:47:13.914Z,8.00
2022-08-22T22:49:41.188Z,5.30
2022-08-22T22:52:11.982Z,9.00
2022-08-22T22:54:39.533Z,10.10
2022-08-22T22:57:12.203Z,13.00
2022-08-22T22:59:40.776Z,9.60
2022-08-22T23:02:13.667Z,7.90
2022-08-22T23:04:45.703Z,9.20
2022-08-22T23:07:14.246Z,5.60
2022-08-22T23:09:45.106Z,5.00
2022-08-22T23:12:13.604Z,10.40
2022-08-22T23:14:42.435Z,6.10
2022-08-22T23:17:09.991Z,8.00
2022-08-22T23:19:38.983Z,8.20
2022-08-22T23:22:06.878Z,6.00
2022-08-22T23:24:37.972Z,4.40
2022-08-22T23:27:06.708Z,9.00
2022-08-22T23:29:34.020Z,8.80
2022-08-22T23:32:02.346Z,5.90
2022-08-22T23:34:32.464Z,7.90
2022-08-22T23:37:00.978Z,5.10
2022-08-22T23:39:29.041Z,9.50
2022-08-22T23:41:56.702Z,7.80
2022-08-22T23:44:25.817Z,6.30
2022-08-22T23:46:53.578Z,6.60
2022-08-22T23:49:21.016Z,5.20
2022-08-22T23:51:50.791Z,4.40
2022-08-22T23:54:18.388Z,6.10
2022-08-22T23:56:48.647Z,6.90
2022-08-22T23:59:18.633Z,8.60
